Time;durP1;ratioP1;P1;durP2;ratioP2;P2;SDS_P1;SDS_P2;PMS_P1;PMS_P2;Temp;Humidity;BMP_temperature;BMP_pressure;BME280_temperature;BME280_humidity;BME280_pressure;Samples;Min_cycle;Max_cycle;Signal;HPM_P1;HPM_P2
2020/12/13 00:00:34;;;;;;;;;;;;;;;21.13;35.14;100503.16;3134958;27;114454;-58
2020/12/13 00:02:08;;;;;;;;;;;;;;;21.23;34.90;100494.47;3134425;27;114401;-58
2020/12/13 00:03:39;;;;;;;;;;;;;;;21.30;34.98;100494.84;3132749;27;114081;-57
2020/12/13 00:05:11;;;;;;;;;;;;;;;21.35;34.85;100494.66;3120352;27;114580;-58
2020/12/13 00:06:42;;;;;;;;;;;;;;;21.40;35.02;100500.13;3132948;27;114491;-59
2020/12/13 00:08:13;;;;;;;;;;;;;;;21.43;35.13;100507.94;3129773;27;114204;-59
2020/12/13 00:09:44;;;;;;;;;;;;;;;21.45;35.23;100494.38;3132324;27;114869;-58
2020/12/13 00:11:16;;;;;;;;;;;;;;;21.46;35.54;100493.22;3134082;27;115318;-58
2020/12/13 00:12:48;;;;;;;;;;;;;;;21.48;35.58;100490.94;3132654;27;114080;-59
2020/12/13 00:14:19;;;;;;;;;;;;;;;21.50;35.64;100499.00;3133099;27;114594;-59
2020/12/13 00:15:50;;;;;;;;;;;;;;;21.50;36.02;100493.38;3133648;27;114169;-59
2020/12/13 00:17:21;;;;;;;;;;;;;;;21.50;35.77;100488.59;3133653;27;113989;-58
2020/12/13 00:18:53;;;;;;;;;;;;;;;21.52;35.76;100488.28;3127954;27;116461;-59
2020/12/13 00:20:24;;;;;;;;;;;;;;;21.51;35.56;100484.66;3133665;27;115142;-58
2020/12/13 00:21:57;;;;;;;;;;;;;;;21.52;36.05;100491.09;3133808;27;114486;-59
2020/12/13 00:23:28;;;;;;;;;;;;;;;21.51;36.01;100495.06;3131889;27;115064;-58
2020/12/13 00:25:00;;;;;;;;;;;;;;;21.51;35.94;100495.06;3131843;27;114081;-58
2020/12/13 00:26:31;;;;;;;;;;;;;;;21.50;36.71;100493.38;3133088;27;114090;-59
2020/12/13 00:28:02;;;;;;;;;;;;;;;21.49;36.33;100486.94;3137516;27;114438;-59
2020/12/13 00:29:34;;;;;;;;;;;;;;;21.48;36.28;100492.91;3117267;27;115910;-58
2020/12/13 00:31:12;;;;;;;;;;;;;;;21.48;36.39;100492.91;3127506;27;116467;-58
2020/12/13 00:32:43;;;;;;;;;;;;;;;21.47;36.39;100491.25;3134228;27;115355;-59
2020/12/13 00:34:16;;;;;;;;;;;;;;;21.46;36.45;100487.59;3130411;27;116145;-59
2020/12/13 00:35:47;;;;;;;;;;;;;;;21.45;36.50;100500.00;3133571;27;115240;-59
2020/12/13 00:37:18;;;;;;;;;;;;;;;21.45;36.39;100493.53;3133449;27;116056;-59
2020/12/13 00:38:50;;;;;;;;;;;;;;;21.43;36.56;100493.88;3130627;27;114622;-59
2020/12/13 00:40:23;;;;;;;;;;;;;;;21.42;36.69;100494.19;3132559;27;115755;-59
2020/12/13 00:41:55;;;;;;;;;;;;;;;21.41;37.03;100496.19;3117624;27;115732;-59
2020/12/13 00:43:41;;;;;;;;;;;;;;;21.41;37.17;100500.97;3128798;27;115152;-59
2020/12/13 00:45:12;;;;;;;;;;;;;;;21.39;37.07;100495.69;3133925;27;115051;-59
2020/12/13 00:46:44;;;;;;;;;;;;;;;21.37;37.48;100492.38;3119518;27;114343;-58
2020/12/13 00:48:15;;;;;;;;;;;;;;;21.37;37.12;100489.56;3129526;27;114702;-58
2020/12/13 00:49:46;;;;;;;;;;;;;;;21.36;37.49;100492.69;3138548;27;115848;-61
2020/12/13 00:51:21;;;;;;;;;;;;;;;21.33;37.38;100491.38;3134605;27;114410;-60
2020/12/13 00:52:53;;;;;;;;;;;;;;;21.34;37.54;100495.00;3133414;27;114070;-61
2020/12/13 00:54:24;;;;;;;;;;;;;;;21.31;37.80;100490.84;3132827;27;114139;-60
2020/12/13 00:55:56;;;;;;;;;;;;;;;21.30;37.79;100495.63;3134373;27;114636;-60
2020/12/13 00:57:27;;;;;;;;;;;;;;;21.28;37.65;100497.97;3134653;27;114235;-60
2020/12/13 00:58:58;;;;;;;;;;;;;;;21.27;37.96;100499.09;3134235;27;114602;-60
2020/12/13 01:00:31;;;;;;;;;;;;;;;21.27;37.89;100498.28;3134477;27;113974;-60
2020/12/13 01:02:02;;;;;;;;;;;;;;;21.24;37.95;100496.13;3134736;27;113987;-59
2020/12/13 01:03:34;;;;;;;;;;;;;;;21.23;38.07;100500.06;3133455;27;114521;-60
2020/12/13 01:05:05;;;;;;;;;;;;;;;21.23;38.08;100502.88;3133825;27;114297;-59
2020/12/13 01:06:36;;;;;;;;;;;;;;;21.21;38.49;100502.41;3134843;27;114946;-60
2020/12/13 01:08:07;;;;;;;;;;;;;;;21.20;38.19;100501.56;3132873;27;113792;-60
2020/12/13 01:09:39;;;;;;;;;;;;;;;21.19;38.38;100504.69;3131675;27;115221;-60
2020/12/13 01:11:10;;;;;;;;;;;;;;;21.17;38.37;100505.00;3136592;27;113765;-59
2020/12/13 01:12:41;;;;;;;;;;;;;;;21.17;38.52;100501.38;3135254;27;115064;-60
2020/12/13 01:14:12;;;;;;;;;;;;;;;21.16;38.61;100491.31;3133486;27;114107;-60
2020/12/13 01:15:43;;;;;;;;;;;;;;;21.14;38.46;100494.41;3119120;27;114142;-60
2020/12/13 01:17:14;;;;;;;;;;;;;;;21.12;38.76;100496.69;3129939;27;114509;-60
2020/12/13 01:18:46;;;;;;;;;;;;;;;21.11;38.62;100494.22;3134599;27;114583;-59
2020/12/13 01:20:17;;;;;;;;;;;;;;;21.10;38.70;100496.19;3135970;27;114866;-60
2020/12/13 01:21:48;;;;;;;;;;;;;;;21.08;39.00;100486.41;3136827;27;115122;-60
2020/12/13 01:23:19;;;;;;;;;;;;;;;21.06;38.71;100483.94;3134442;27;116672;-60
2020/12/13 01:24:50;;;;;;;;;;;;;;;21.04;38.91;100475.00;3135952;27;115594;-60
2020/12/13 01:26:24;;;;;;;;;;;;;;;21.04;39.02;100485.41;3136558;27;115253;-56
2020/12/13 01:27:55;;;;;;;;;;;;;;;21.01;39.14;100486.91;3136235;27;116220;-56
2020/12/13 01:29:26;;;;;;;;;;;;;;;21.00;39.08;100485.22;3136553;27;115127;-56
2020/12/13 01:30:57;;;;;;;;;;;;;;;20.98;39.32;100478.28;3135868;27;115120;-56
2020/12/13 01:32:29;;;;;;;;;;;;;;;20.97;39.40;100473.81;3136810;27;115954;-55
2020/12/13 01:34:00;;;;;;;;;;;;;;;20.96;39.30;100467.38;3135491;27;114796;-56
2020/12/13 01:35:31;;;;;;;;;;;;;;;20.94;39.66;100475.28;3135031;27;115700;-56
2020/12/13 01:37:02;;;;;;;;;;;;;;;20.92;39.49;100476.75;3136532;27;115790;-56
2020/12/13 01:38:33;;;;;;;;;;;;;;;20.91;39.57;100475.94;3133971;27;115312;-57
2020/12/13 01:40:05;;;;;;;;;;;;;;;20.91;39.29;100475.09;3135708;27;114848;-56
2020/12/13 01:41:36;;;;;;;;;;;;;;;20.90;39.67;100471.47;3136043;27;114623;-56
2020/12/13 01:43:08;;;;;;;;;;;;;;;20.88;39.60;100476.59;3136189;27;114641;-56
2020/12/13 01:44:39;;;;;;;;;;;;;;;20.88;39.58;100468.16;3134437;27;116466;-56
2020/12/13 01:46:10;;;;;;;;;;;;;;;20.85;39.68;100469.63;3135970;27;114669;-56
2020/12/13 01:47:42;;;;;;;;;;;;;;;20.85;39.72;100471.59;3135340;27;114706;-56
2020/12/13 01:49:13;;;;;;;;;;;;;;;20.84;39.46;100479.22;3135046;27;114808;-56
2020/12/13 01:52:48;;;;;;;;;;;;;;;20.81;39.68;100476.19;3134442;27;114610;-56
2020/12/13 01:54:19;;;;;;;;;;;;;;;20.80;39.43;100475.38;3135177;27;116775;-56
2020/12/13 01:55:51;;;;;;;;;;;;;;;20.80;39.49;100474.56;3125372;27;115745;-55
2020/12/13 01:57:23;;;;;;;;;;;;;;;20.78;39.54;100472.06;3120701;27;114232;-55
2020/12/13 01:58:57;;;;;;;;;;;;;;;20.76;39.66;100473.53;3131465;27;114115;-55
2020/12/13 02:00:28;;;;;;;;;;;;;;;20.76;39.68;100479.13;3136552;27;114128;-55
2020/12/13 02:02:01;;;;;;;;;;;;;;;20.75;39.70;100483.13;3133566;27;113812;-55
2020/12/13 02:03:38;;;;;;;;;;;;;;;20.74;39.53;100479.47;3134608;27;114661;-55
2020/12/13 02:05:12;;;;;;;;;;;;;;;20.74;39.52;100481.47;3135752;27;114186;-55
2020/12/13 02:06:46;;;;;;;;;;;;;;;20.71;39.81;100482.94;3136475;27;114222;-55
2020/12/13 02:08:21;;;;;;;;;;;;;;;20.70;39.76;100486.06;3134371;27;114293;-55
2020/12/13 02:09:52;;;;;;;;;;;;;;;20.67;39.97;100493.13;3134845;27;114070;-55
2020/12/13 02:11:23;;;;;;;;;;;;;;;20.66;39.80;100505.53;3135976;27;114092;-55
2020/12/13 02:12:54;;;;;;;;;;;;;;;20.65;39.85;100505.84;3133424;27;115181;-55
2020/12/13 02:14:26;;;;;;;;;;;;;;;20.62;39.72;100501.72;3135607;27;114180;-55
2020/12/13 02:15:59;;;;;;;;;;;;;;;20.61;40.12;100502.84;3135648;27;114293;-56
2020/12/13 02:17:30;;;;;;;;;;;;;;;20.60;39.73;100505.97;3139864;27;114292;-56
2020/12/13 02:19:01;;;;;;;;;;;;;;;20.59;40.33;100512.72;3134858;27;114210;-56
2020/12/13 02:20:32;;;;;;;;;;;;;;;20.60;39.72;100522.81;3122038;27;115044;-55
2020/12/13 02:22:11;;;;;;;;;;;;;;;20.58;40.25;100517.50;3131463;27;114741;-56
2020/12/13 02:23:44;;;;;;;;;;;;;;;20.55;40.09;100515.34;3129820;27;114369;-56
2020/12/13 02:25:16;;;;;;;;;;;;;;;20.57;40.26;100520.66;3121629;27;115377;-56
2020/12/13 02:27:05;;;;;;;;;;;;;;;20.55;40.17;100515.34;3130884;27;114678;-56
2020/12/13 02:28:37;;;;;;;;;;;;;;;20.53;40.31;100514.03;3133780;27;115273;-56
2020/12/13 02:30:08;;;;;;;;;;;;;;;20.54;39.84;100510.88;3136209;27;115215;-56
2020/12/13 02:31:40;;;;;;;;;;;;;;;20.52;40.25;100501.13;3133235;27;114226;-55
2020/12/13 02:33:11;;;;;;;;;;;;;;;20.49;40.19;100502.56;3122124;27;115446;-56
2020/12/13 02:34:42;;;;;;;;;;;;;;;20.50;39.81;100503.41;3122329;27;115188;-56
2020/12/13 02:36:13;;;;;;;;;;;;;;;20.48;40.13;100505.72;3127808;27;115090;-55
2020/12/13 02:37:44;;;;;;;;;;;;;;;20.47;40.43;100507.69;3135224;27;116031;-56
2020/12/13 02:39:15;;;;;;;;;;;;;;;20.45;40.26;100514.75;3138057;27;116208;-56
2020/12/13 02:40:46;;;;;;;;;;;;;;;20.44;40.37;100508.34;3135313;27;114660;-55
2020/12/13 02:42:17;;;;;;;;;;;;;;;20.42;40.47;100510.63;3136669;27;115827;-56
2020/12/13 02:43:48;;;;;;;;;;;;;;;20.39;40.68;100505.66;3133762;27;115327;-56
2020/12/13 02:45:20;;;;;;;;;;;;;;;20.39;40.58;100508.47;3133139;27;115244;-56
2020/12/13 02:46:51;;;;;;;;;;;;;;;20.39;40.69;100514.91;3135968;27;114656;-60
2020/12/13 02:48:23;;;;;;;;;;;;;;;20.38;40.47;100518.03;3134894;27;114899;-55
2020/12/13 02:49:54;;;;;;;;;;;;;;;20.36;40.90;100523.94;3135670;27;113867;-55
2020/12/13 02:51:25;;;;;;;;;;;;;;;20.35;40.94;100518.69;3135849;27;114764;-55
2020/12/13 02:52:56;;;;;;;;;;;;;;;20.35;40.92;100516.66;3131699;27;114651;-55
2020/12/13 02:54:27;;;;;;;;;;;;;;;20.33;41.23;100515.34;3132559;27;114410;-55
2020/12/13 02:55:58;;;;;;;;;;;;;;;20.33;41.08;100515.34;3135168;27;114982;-60
2020/12/13 02:57:29;;;;;;;;;;;;;;;20.33;41.19;100513.38;3121534;27;114669;-60
2020/12/13 02:59:00;;;;;;;;;;;;;;;20.29;41.28;100501.09;3128346;27;115038;-60
2020/12/13 03:00:31;;;;;;;;;;;;;;;20.30;41.26;100511.22;3138992;27;115284;-55
2020/12/13 03:02:02;;;;;;;;;;;;;;;20.30;41.63;100505.59;3136027;27;114299;-55
2020/12/13 03:03:34;;;;;;;;;;;;;;;20.30;41.55;100505.59;3134884;27;114072;-55
2020/12/13 03:05:05;;;;;;;;;;;;;;;20.27;41.50;100496.94;3134608;27;113890;-55
2020/12/13 03:06:36;;;;;;;;;;;;;;;20.24;41.90;100495.59;3136125;27;113784;-55
2020/12/13 03:08:08;;;;;;;;;;;;;;;20.23;42.05;100498.72;3133819;27;114189;-56
2020/12/13 03:09:39;;;;;;;;;;;;;;;20.23;41.83;100501.53;3134480;27;114286;-56
2020/12/13 03:11:11;;;;;;;;;;;;;;;20.23;41.99;100501.53;3134425;27;113658;-56
2020/12/13 03:12:42;;;;;;;;;;;;;;;20.20;41.83;100502.16;3132061;27;114410;-56
2020/12/13 03:14:13;;;;;;;;;;;;;;;20.20;41.79;100504.97;3134954;27;114222;-57
2020/12/13 03:15:44;;;;;;;;;;;;;;;20.17;41.70;100498.00;3135251;27;114709;-57
2020/12/13 03:17:15;;;;;;;;;;;;;;;20.15;41.71;100503.13;3132746;27;113986;-56
2020/12/13 03:18:46;;;;;;;;;;;;;;;20.14;41.57;100509.03;3118314;27;115112;-55
2020/12/13 03:20:17;;;;;;;;;;;;;;;20.14;41.80;100509.03;3130289;27;114245;-56
2020/12/13 03:21:48;;;;;;;;;;;;;;;20.10;41.92;100513.63;3135596;27;114355;-56
2020/12/13 03:23:19;;;;;;;;;;;;;;;20.10;41.98;100511.66;3136027;27;114691;-56
2020/12/13 03:24:51;;;;;;;;;;;;;;;20.09;42.16;100497.94;3134512;27;114335;-57
2020/12/13 03:26:22;;;;;;;;;;;;;;;20.10;42.36;100510.81;3135856;27;116105;-56
2020/12/13 03:27:53;;;;;;;;;;;;;;;20.07;42.17;100497.44;3135219;27;115239;-56
2020/12/13 03:29:24;;;;;;;;;;;;;;;20.06;42.50;100501.38;3133694;27;114955;-56
2020/12/13 03:30:56;;;;;;;;;;;;;;;20.03;42.40;100500.03;3135721;27;115309;-56
2020/12/13 03:32:28;;;;;;;;;;;;;;;20.02;42.37;100508.78;3135523;27;115338;-56
2020/12/13 03:33:59;;;;;;;;;;;;;;;20.02;42.50;100500.34;3134051;27;114839;-56
2020/12/13 03:35:30;;;;;;;;;;;;;;;19.98;42.49;100489.78;3133823;27;114611;-56
2020/12/13 03:37:01;;;;;;;;;;;;;;;19.97;42.59;100484.47;3135336;27;114269;-56
2020/12/13 03:38:33;;;;;;;;;;;;;;;19.94;42.45;100485.91;3133069;27;115090;-57
2020/12/13 03:40:04;;;;;;;;;;;;;;;19.95;42.45;100486.75;3133808;27;114208;-65
2020/12/13 03:41:35;;;;;;;;;;;;;;;19.93;42.82;100492.69;3135070;27;115604;-60
2020/12/13 03:43:06;;;;;;;;;;;;;;;19.92;42.72;100488.22;3135183;27;114070;-60
2020/12/13 03:44:37;;;;;;;;;;;;;;;19.91;42.53;100488.53;3137713;27;114254;-60
2020/12/13 03:46:08;;;;;;;;;;;;;;;19.92;42.84;100484.59;3134616;27;114741;-60
2020/12/13 03:47:39;;;;;;;;;;;;;;;19.91;42.77;100485.72;3134998;27;114668;-56
2020/12/13 03:49:11;;;;;;;;;;;;;;;19.90;42.78;100476.47;3134148;27;115755;-56
2020/12/13 03:50:42;;;;;;;;;;;;;;;19.88;42.73;100478.78;3134577;27;115782;-56
2020/12/13 03:52:13;;;;;;;;;;;;;;;19.87;42.76;100471.53;3134669;27;114505;-55
2020/12/13 03:53:44;;;;;;;;;;;;;;;19.87;42.72;100467.88;3133123;27;114683;-56
2020/12/13 03:55:15;;;;;;;;;;;;;;;19.87;42.97;100467.88;3131785;27;114933;-56
2020/12/13 03:56:46;;;;;;;;;;;;;;;19.85;43.11;100462.59;3134963;27;115725;-56
2020/12/13 03:58:17;;;;;;;;;;;;;;;19.85;43.14;100458.97;3133942;27;114757;-56
2020/12/13 03:59:48;;;;;;;;;;;;;;;19.85;43.02;100458.97;3133191;27;114832;-56
2020/12/13 04:01:19;;;;;;;;;;;;;;;19.85;42.76;100451.38;3134540;27;115621;-56
2020/12/13 04:02:51;;;;;;;;;;;;;;;19.83;42.94;100442.47;3134363;27;115781;-56
2020/12/13 04:04:22;;;;;;;;;;;;;;;19.83;43.01;100438.81;3134766;27;115720;-56
2020/12/13 04:05:53;;;;;;;;;;;;;;;19.81;42.94;100439.13;3124488;27;115554;-57
2020/12/13 04:07:24;;;;;;;;;;;;;;;19.79;42.86;100444.25;3129637;27;114246;-56
2020/12/13 04:08:55;;;;;;;;;;;;;;;19.80;42.85;100428.25;3130707;27;114368;-56
2020/12/13 04:10:27;;;;;;;;;;;;;;;19.77;42.69;100440.91;3134976;27;114057;-56
2020/12/13 04:11:58;;;;;;;;;;;;;;;19.77;42.75;100446.50;3134037;27;116296;-56
2020/12/13 04:13:30;;;;;;;;;;;;;;;19.74;42.92;100435.94;3119366;27;114765;-56
2020/12/13 04:15:04;;;;;;;;;;;;;;;19.75;42.81;100442.38;3129011;27;115015;-56
2020/12/13 04:16:35;;;;;;;;;;;;;;;19.73;42.90;100448.28;3135358;27;113966;-56
2020/12/13 04:18:06;;;;;;;;;;;;;;;19.72;43.01;100441.03;3134414;27;114182;-56
2020/12/13 04:19:37;;;;;;;;;;;;;;;19.71;42.98;100444.16;3134788;27;115079;-56
2020/12/13 04:21:08;;;;;;;;;;;;;;;19.70;43.00;100445.31;3134422;27;114004;-56
2020/12/13 04:22:40;;;;;;;;;;;;;;;19.71;42.89;100441.34;3130687;27;114339;-56
2020/12/13 04:24:11;;;;;;;;;;;;;;;19.70;43.15;100440.53;3132934;27;114194;-56
2020/12/13 04:25:42;;;;;;;;;;;;;;;19.69;43.05;100441.66;3133948;27;113997;-56
2020/12/13 04:27:13;;;;;;;;;;;;;;;19.70;43.09;100456.50;3137882;27;114040;-56
2020/12/13 04:28:45;;;;;;;;;;;;;;;19.69;43.14;100452.03;3134170;27;114692;-57
2020/12/13 04:30:16;;;;;;;;;;;;;;;19.68;43.08;100465.22;3120843;27;114119;-56
2020/12/13 04:31:47;;;;;;;;;;;;;;;19.67;43.10;100455.16;3130446;27;115140;-56
2020/12/13 04:33:21;;;;;;;;;;;;;;;19.67;43.07;100455.16;3130937;27;114460;-58
2020/12/13 04:34:52;;;;;;;;;;;;;;;19.64;42.98;100447.38;3134599;27;114673;-57
2020/12/13 04:36:26;;;;;;;;;;;;;;;19.65;42.82;100451.84;3133916;27;115080;-56
2020/12/13 04:37:57;;;;;;;;;;;;;;;19.62;42.96;100452.50;3132069;27;115232;-56
2020/12/13 04:39:29;;;;;;;;;;;;;;;19.63;43.02;100450.50;3132435;27;115066;-57
2020/12/13 04:41:00;;;;;;;;;;;;;;;19.61;43.09;100447.19;3134953;27;114236;-56
2020/12/13 04:42:34;;;;;;;;;;;;;;;19.61;43.39;100447.19;3133773;27;115373;-56
2020/12/13 04:44:06;;;;;;;;;;;;;;;19.61;43.11;100448.03;3133231;27;115147;-55
2020/12/13 04:45:37;;;;;;;;;;;;;;;19.59;43.42;100436.28;3134845;27;115139;-55
2020/12/13 04:47:09;;;;;;;;;;;;;;;19.61;43.18;100439.63;3134382;27;115301;-55
2020/12/13 04:48:41;;;;;;;;;;;;;;;19.60;43.34;100443.56;3123476;27;115791;-55
2020/12/13 04:50:17;;;;;;;;;;;;;;;19.60;43.39;100439.91;3121939;27;114664;-56
2020/12/13 04:51:50;;;;;;;;;;;;;;;19.58;43.36;100445.81;3135090;27;115810;-56
2020/12/13 04:53:26;;;;;;;;;;;;;;;19.57;43.38;100444.19;3134451;27;114739;-56
2020/12/13 04:54:57;;;;;;;;;;;;;;;19.57;43.44;100440.56;3136371;27;115183;-55
2020/12/13 04:56:32;;;;;;;;;;;;;;;19.57;43.52;100432.16;3123636;27;115875;-55
2020/12/13 04:58:03;;;;;;;;;;;;;;;19.55;43.57;100435.25;3132906;27;115757;-56
2020/12/13 04:59:34;;;;;;;;;;;;;;;19.54;43.42;100436.41;3123249;27;116594;-55
2020/12/13 05:01:05;;;;;;;;;;;;;;;19.53;43.53;100429.16;3128219;27;115782;-55
2020/12/13 05:02:36;;;;;;;;;;;;;;;19.53;43.58;100434.75;3135086;27;114583;-56
2020/12/13 05:04:07;;;;;;;;;;;;;;;19.53;43.62;100435.56;3135857;27;114579;-56
2020/12/13 05:05:39;;;;;;;;;;;;;;;19.54;43.53;100433.59;3136711;27;115289;-56
2020/12/13 05:07:10;;;;;;;;;;;;;;;19.51;43.67;100426.66;3120707;27;114810;-56
2020/12/13 05:08:41;;;;;;;;;;;;;;;19.50;43.75;100427.78;3128004;27;115790;-56
2020/12/13 05:10:12;;;;;;;;;;;;;;;19.49;43.76;100416.88;3136471;27;115796;-56
2020/12/13 05:11:44;;;;;;;;;;;;;;;19.49;43.78;100414.91;3138192;27;116217;-56
2020/12/13 05:13:15;;;;;;;;;;;;;;;19.50;43.86;100415.75;3136033;27;114158;-56
2020/12/13 05:14:47;;;;;;;;;;;;;;;19.48;43.91;100404.06;3136345;27;114593;-56
2020/12/13 05:16:18;;;;;;;;;;;;;;;19.50;43.87;100404.53;3137038;27;114527;-56
2020/12/13 05:17:50;;;;;;;;;;;;;;;19.49;43.90;100408.47;3136113;27;114167;-56
2020/12/13 05:19:22;;;;;;;;;;;;;;;19.49;44.02;100408.47;3129442;27;114135;-56
2020/12/13 05:20:53;;;;;;;;;;;;;;;19.46;44.12;100400.72;3135898;27;117294;-57
2020/12/13 05:22:24;;;;;;;;;;;;;;;19.46;43.78;100400.72;3136898;27;114038;-56
2020/12/13 05:23:56;;;;;;;;;;;;;;;19.47;43.89;100399.59;3120021;27;114680;-56
2020/12/13 05:25:37;;;;;;;;;;;;;;;19.45;43.75;100393.44;3132689;27;113920;-56
2020/12/13 05:27:08;;;;;;;;;;;;;;;19.44;44.12;100398.22;3132977;27;114356;-56
2020/12/13 05:28:42;;;;;;;;;;;;;;;19.45;43.85;100397.09;3135627;27;113785;-56
2020/12/13 05:30:15;;;;;;;;;;;;;;;19.44;44.09;100391.81;3136886;27;114678;-55
2020/12/13 05:31:46;;;;;;;;;;;;;;;19.43;44.26;100393.78;3135094;27;115225;-55
2020/12/13 05:33:25;;;;;;;;;;;;;;;19.41;44.19;100395.19;3140082;27;116796;-55
2020/12/13 05:34:57;;;;;;;;;;;;;;;19.42;44.18;100399.66;3136691;27;114183;-55
2020/12/13 05:36:33;;;;;;;;;;;;;;;19.40;44.06;100396.34;3136324;27;114619;-55
2020/12/13 05:38:10;;;;;;;;;;;;;;;19.39;44.32;100391.91;3134917;27;115154;-55
2020/12/13 05:39:42;;;;;;;;;;;;;;;19.38;44.36;100393.88;3135927;27;114378;-55
2020/12/13 05:41:15;;;;;;;;;;;;;;;19.37;44.13;100395.00;3137240;27;115314;-55
2020/12/13 05:42:54;;;;;;;;;;;;;;;19.34;44.21;100392.00;3136003;27;114118;-55
2020/12/13 05:51:18;;;;;;;;;;;;;;;19.30;44.31;100382.56;3136044;27;113585;-54
2020/12/13 05:52:49;;;;;;;;;;;;;;;19.29;44.32;100380.91;3121831;27;114217;-60
2020/12/13 05:54:29;;;;;;;;;;;;;;;19.27;44.53;100385.97;3131056;27;115395;-54
2020/12/13 05:56:01;;;;;;;;;;;;;;;19.27;44.39;100386.81;3122441;27;114006;-54
2020/12/13 05:57:33;;;;;;;;;;;;;;;19.28;44.50;100384.84;3131708;27;115874;-54
2020/12/13 05:59:05;;;;;;;;;;;;;;;19.25;44.37;100383.50;3136320;27;115878;-54
2020/12/13 06:00:36;;;;;;;;;;;;;;;19.25;44.38;100393.88;3136620;27;115880;-54
2020/12/13 06:02:10;;;;;;;;;;;;;;;19.23;44.36;100385.78;3136727;27;115014;-54
2020/12/13 06:03:45;;;;;;;;;;;;;;;19.21;44.40;100378.84;3121936;27;115713;-54
2020/12/13 06:05:18;;;;;;;;;;;;;;;19.21;44.45;100382.50;3132327;27;115826;-56
2020/12/13 06:06:53;;;;;;;;;;;;;;;19.20;44.54;100389.22;3127344;27;118774;-56
2020/12/13 06:08:26;;;;;;;;;;;;;;;19.19;44.46;100373.56;3134493;27;115733;-54
2020/12/13 06:10:02;;;;;;;;;;;;;;;19.17;44.36;100372.22;3135022;27;114789;-54
2020/12/13 06:11:34;;;;;;;;;;;;;;;19.19;44.33;100375.53;3136546;27;115913;-57
2020/12/13 06:13:06;;;;;;;;;;;;;;;19.18;44.40;100371.06;3135880;27;115873;-54
2020/12/13 06:14:39;;;;;;;;;;;;;;;19.15;44.54;100368.91;3135084;27;115188;-56
2020/12/13 06:16:11;;;;;;;;;;;;;;;19.15;44.79;100369.72;3136913;27;115927;-55
2020/12/13 06:17:43;;;;;;;;;;;;;;;19.14;44.50;100370.03;3138817;27;114621;-54
2020/12/13 06:19:16;;;;;;;;;;;;;;;19.15;44.33;100369.72;3136159;27;114189;-60
2020/12/13 06:20:48;;;;;;;;;;;;;;;19.14;44.28;100368.06;3135778;27;113887;-59
2020/12/13 06:22:20;;;;;;;;;;;;;;;19.13;44.43;100359.97;3124472;27;113917;-59
2020/12/13 06:23:53;;;;;;;;;;;;;;;19.12;44.38;100367.56;3121495;27;114588;-60
2020/12/13 06:25:24;;;;;;;;;;;;;;;19.10;44.44;100358.63;3136198;27;113890;-59
2020/12/13 06:26:57;;;;;;;;;;;;;;;19.09;44.32;100362.56;3136254;27;113991;-60
2020/12/13 06:28:28;;;;;;;;;;;;;;;19.13;44.31;100362.75;3136218;27;114221;-60
2020/12/13 06:29:59;;;;;;;;;;;;;;;19.14;44.31;100356.03;3130851;27;114560;-60
2020/12/13 06:31:33;;;;;;;;;;;;;;;19.19;44.31;100356.75;3136466;27;113993;-60
2020/12/13 06:33:04;;;;;;;;;;;;;;;19.23;44.55;100352.19;3135676;27;114421;-60
2020/12/13 06:34:35;;;;;;;;;;;;;;;19.26;44.75;100348.75;3136221;27;113798;-60
2020/12/13 06:36:06;;;;;;;;;;;;;;;19.29;44.61;100345.34;3135467;27;114648;-60
2020/12/13 06:37:38;;;;;;;;;;;;;;;19.34;44.58;100347.19;3133962;27;114167;-59
2020/12/13 06:39:14;;;;;;;;;;;;;;;19.38;44.79;100343.44;3128572;27;114355;-59
2020/12/13 06:40:50;;;;;;;;;;;;;;;19.42;44.83;100349.22;3126246;27;113870;-60
2020/12/13 06:42:26;;;;;;;;;;;;;;;19.46;44.77;100339.09;3131542;27;114649;-59
2020/12/13 06:44:01;;;;;;;;;;;;;;;19.51;45.35;100347.38;3135868;27;114159;-59
2020/12/13 06:45:33;;;;;;;;;;;;;;;19.54;45.21;100333.56;3136512;27;115417;-58
2020/12/13 06:47:21;;;;;;;;;;;;;;;19.59;45.36;100345.78;3122695;27;114981;-59
2020/12/13 06:48:53;;;;;;;;;;;;;;;19.65;45.39;100330.50;3133140;27;115518;-59
2020/12/13 06:50:24;;;;;;;;;;;;;;;19.70;45.34;100333.19;3136074;27;115135;-59
2020/12/13 06:51:58;;;;;;;;;;;;;;;19.73;45.32;100333.38;3135856;27;115358;-59
2020/12/13 06:53:29;;;;;;;;;;;;;;;19.77;45.20;100331.59;3133933;27;115211;-59
2020/12/13 06:55:01;;;;;;;;;;;;;;;19.82;44.80;100322.22;3135117;27;114319;-58
2020/12/13 06:56:33;;;;;;;;;;;;;;;19.85;44.87;100322.41;3135802;27;114527;-59
2020/12/13 06:58:04;;;;;;;;;;;;;;;19.89;44.71;100317.00;3135228;27;114248;-59
2020/12/13 06:59:35;;;;;;;;;;;;;;;19.93;44.96;100312.41;3135497;27;116269;-59
2020/12/13 07:01:16;;;;;;;;;;;;;;;19.98;44.81;100315.94;3136354;27;114168;-58
2020/12/13 07:02:56;;;;;;;;;;;;;;;20.03;44.70;100314.13;3134331;27;115142;-59
2020/12/13 07:04:35;;;;;;;;;;;;;;;20.08;44.83;100314.00;3131390;27;114542;-58
2020/12/13 07:06:07;;;;;;;;;;;;;;;20.12;44.71;100313.03;3133264;27;115851;-59
2020/12/13 07:07:40;;;;;;;;;;;;;;;20.17;44.57;100309.28;3134455;27;114763;-59
2020/12/13 07:09:12;;;;;;;;;;;;;;;20.19;44.38;100306.97;3134752;27;115603;-59
2020/12/13 07:10:46;;;;;;;;;;;;;;;20.23;44.60;100305.16;3135888;27;115794;-59
2020/12/13 07:12:18;;;;;;;;;;;;;;;20.27;44.07;100303.38;3121801;27;115688;-58
2020/12/13 07:13:50;;;;;;;;;;;;;;;20.30;44.56;100299.97;3121661;27;114540;-59
2020/12/13 07:15:28;;;;;;;;;;;;;;;20.34;44.09;100300.97;3133002;27;115849;-59
2020/12/13 07:17:08;;;;;;;;;;;;;;;20.37;44.04;100306.75;3135343;27;115122;-59
2020/12/13 07:18:44;;;;;;;;;;;;;;;20.43;43.99;100304.66;3131738;27;114572;-59
2020/12/13 07:20:16;;;;;;;;;;;;;;;20.46;43.83;100305.97;3135361;27;115008;-54
2020/12/13 07:21:47;;;;;;;;;;;;;;;20.49;43.78;100308.94;3134316;27;115861;-54
2020/12/13 07:23:20;;;;;;;;;;;;;;;20.53;43.56;100311.94;3116011;27;114753;-54
2020/12/13 07:24:51;;;;;;;;;;;;;;;20.55;43.53;100316.06;3134058;27;115853;-55
2020/12/13 07:26:22;;;;;;;;;;;;;;;20.59;43.48;100310.63;3135984;27;113853;-55
2020/12/13 07:27:54;;;;;;;;;;;;;;;20.63;43.60;100304.03;3135025;27;114342;-55
2020/12/13 07:29:26;;;;;;;;;;;;;;;20.66;44.06;100303.41;3135035;27;114931;-55
2020/12/13 07:30:59;;;;;;;;;;;;;;;20.69;43.94;100294.34;3134775;27;114217;-55
2020/12/13 07:32:30;;;;;;;;;;;;;;;20.72;43.32;100292.84;3135463;27;113742;-55
2020/12/13 07:34:05;;;;;;;;;;;;;;;20.75;43.25;100293.03;3134414;27;114236;-55
2020/12/13 07:35:36;;;;;;;;;;;;;;;20.78;43.46;100283.13;3133589;27;113975;-54
2020/12/13 07:37:09;;;;;;;;;;;;;;;20.80;43.32;100280.84;3120963;27;114220;-55
2020/12/13 07:38:41;;;;;;;;;;;;;;;20.83;42.92;100282.97;3128373;27;113975;-54
2020/12/13 07:40:13;;;;;;;;;;;;;;;20.86;43.34;100276.69;3133841;27;114680;-54
2020/12/13 07:41:44;;;;;;;;;;;;;;;20.89;43.28;100278.03;3134356;27;113910;-54
2020/12/13 07:43:15;;;;;;;;;;;;;;;20.91;42.84;100276.56;3133595;27;113828;-55
2020/12/13 07:44:47;;;;;;;;;;;;;;;20.92;42.65;100269.78;3135316;27;114143;-54
2020/12/13 07:46:21;;;;;;;;;;;;;;;20.95;42.94;100277.53;3125211;27;114284;-54
2020/12/13 07:48:03;;;;;;;;;;;;;;;20.98;42.64;100279.72;3129033;27;114534;-54
2020/12/13 07:49:34;;;;;;;;;;;;;;;21.01;42.73;100278.22;3132414;27;114231;-55
2020/12/13 07:51:06;;;;;;;;;;;;;;;21.04;42.86;100277.56;3117764;27;114116;-55
2020/12/13 07:52:44;;;;;;;;;;;;;;;21.06;42.87;100278.06;3128866;27;114586;-55
2020/12/13 07:54:15;;;;;;;;;;;;;;;21.08;42.68;100276.56;3133716;27;115227;-55
2020/12/13 07:55:47;;;;;;;;;;;;;;;21.10;42.69;100276.25;3134220;27;114500;-55
2020/12/13 07:57:18;;;;;;;;;;;;;;;21.12;42.67;100271.94;3133774;27;114837;-55